sensor_id;sensor_type;location;lat;lon;timestamp;temperature;humidity
51783;DHT22;37845;53.196;5.638;2022-08-19T00:02:22;17.60;99.90
51783;DHT22;37845;53.196;5.638;2022-08-19T00:04:48;17.60;99.90
51783;DHT22;37845;53.196;5.638;2022-08-19T00:07:21;17.60;99.90
51783;DHT22;37845;53.196;5.638;2022-08-19T00:09:46;17.50;99.90
51783;DHT22;37845;53.196;5.638;2022-08-19T00:12:12;17.50;99.90
51783;DHT22;37845;53.196;5.638;2022-08-19T00:14:38;17.50;99.90
51783;DHT22;37845;53.196;5.638;2022-08-19T00:17:04;17.40;99.90
51783;DHT22;37845;53.196;5.638;2022-08-19T00:19:31;17.40;99.90
51783;DHT22;37845;53.196;5.638;2022-08-19T00:21:57;17.40;99.90
51783;DHT22;37845;53.196;5.638;2022-08-19T00:24:23;17.30;99.90
51783;DHT22;37845;53.196;5.638;2022-08-19T00:26:49;17.30;99.90
51783;DHT22;37845;53.196;5.638;2022-08-19T00:29:17;17.30;99.90
51783;DHT22;37845;53.196;5.638;2022-08-19T00:31:43;17.30;99.90
51783;DHT22;37845;53.196;5.638;2022-08-19T00:34:09;17.30;99.90
51783;DHT22;37845;53.196;5.638;2022-08-19T00:36:36;17.20;99.90
51783;DHT22;37845;53.196;5.638;2022-08-19T00:39:03;17.20;99.90
51783;DHT22;37845;53.196;5.638;2022-08-19T00:41:29;17.20;99.90
51783;DHT22;37845;53.196;5.638;2022-08-19T00:44:02;17.20;99.90
51783;DHT22;37845;53.196;5.638;2022-08-19T00:49:19;17.20;99.90
51783;DHT22;37845;53.196;5.638;2022-08-19T00:51:46;17.20;99.90
51783;DHT22;37845;53.196;5.638;2022-08-19T00:54:12;17.20;99.90
51783;DHT22;37845;53.196;5.638;2022-08-19T00:56:38;17.20;99.90
51783;DHT22;37845;53.196;5.638;2022-08-19T00:59:05;17.10;99.90
51783;DHT22;37845;53.196;5.638;2022-08-19T01:01:35;17.10;99.90
51783;DHT22;37845;53.196;5.638;2022-08-19T01:04:01;17.10;99.90
51783;DHT22;37845;53.196;5.638;2022-08-19T01:06:27;17.00;99.90
51783;DHT22;37845;53.196;5.638;2022-08-19T01:08:54;17.00;99.90
51783;DHT22;37845;53.196;5.638;2022-08-19T01:11:20;17.00;99.90
51783;DHT22;37845;53.196;5.638;2022-08-19T01:13:46;16.90;99.90
51783;DHT22;37845;53.196;5.638;2022-08-19T01:16:12;16.90;99.90
51783;DHT22;37845;53.196;5.638;2022-08-19T01:18:39;16.90;99.90
51783;DHT22;37845;53.196;5.638;2022-08-19T01:21:10;16.90;99.90
51783;DHT22;37845;53.196;5.638;2022-08-19T01:23:41;16.90;99.90
51783;DHT22;37845;53.196;5.638;2022-08-19T01:26:18;16.90;99.90
51783;DHT22;37845;53.196;5.638;2022-08-19T01:28:46;16.90;99.90
51783;DHT22;37845;53.196;5.638;2022-08-19T01:31:13;16.90;99.90
51783;DHT22;37845;53.196;5.638;2022-08-19T01:33:39;16.90;99.90
51783;DHT22;37845;53.196;5.638;2022-08-19T01:36:09;16.90;99.90
51783;DHT22;37845;53.196;5.638;2022-08-19T01:38:37;16.90;99.90
51783;DHT22;37845;53.196;5.638;2022-08-19T01:41:04;16.90;99.90
51783;DHT22;37845;53.196;5.638;2022-08-19T01:43:29;16.90;99.90
51783;DHT22;37845;53.196;5.638;2022-08-19T01:45:55;16.90;99.90
51783;DHT22;37845;53.196;5.638;2022-08-19T01:48:26;16.90;99.90
51783;DHT22;37845;53.196;5.638;2022-08-19T01:50:54;16.90;99.90
51783;DHT22;37845;53.196;5.638;2022-08-19T01:53:20;16.80;99.90
51783;DHT22;37845;53.196;5.638;2022-08-19T01:55:45;16.80;99.90
51783;DHT22;37845;53.196;5.638;2022-08-19T01:58:14;16.80;99.90
51783;DHT22;37845;53.196;5.638;2022-08-19T02:00:40;16.80;99.90
51783;DHT22;37845;53.196;5.638;2022-08-19T02:03:06;16.80;99.90
51783;DHT22;37845;53.196;5.638;2022-08-19T02:05:32;16.80;99.90
51783;DHT22;37845;53.196;5.638;2022-08-19T02:07:57;16.80;99.90
51783;DHT22;37845;53.196;5.638;2022-08-19T02:10:24;16.80;99.90
51783;DHT22;37845;53.196;5.638;2022-08-19T02:12:49;16.80;99.90
51783;DHT22;37845;53.196;5.638;2022-08-19T02:15:16;16.70;99.90
51783;DHT22;37845;53.196;5.638;2022-08-19T02:17:41;16.70;99.90
51783;DHT22;37845;53.196;5.638;2022-08-19T02:20:08;16.70;99.90
51783;DHT22;37845;53.196;5.638;2022-08-19T02:22:33;16.70;99.90
51783;DHT22;37845;53.196;5.638;2022-08-19T02:25:00;16.70;99.90
51783;DHT22;37845;53.196;5.638;2022-08-19T02:27:26;16.60;99.90
51783;DHT22;37845;53.196;5.638;2022-08-19T02:29:52;16.70;99.90
51783;DHT22;37845;53.196;5.638;2022-08-19T02:32:19;16.70;99.90
51783;DHT22;37845;53.196;5.638;2022-08-19T02:34:45;16.60;99.90
51783;DHT22;37845;53.196;5.638;2022-08-19T02:37:11;16.60;99.90
51783;DHT22;37845;53.196;5.638;2022-08-19T02:39:57;16.60;99.90
51783;DHT22;37845;53.196;5.638;2022-08-19T02:42:23;16.60;99.90
51783;DHT22;37845;53.196;5.638;2022-08-19T02:44:48;16.60;99.90
51783;DHT22;37845;53.196;5.638;2022-08-19T02:47:14;16.60;99.90
51783;DHT22;37845;53.196;5.638;2022-08-19T02:49:40;16.50;99.90
51783;DHT22;37845;53.196;5.638;2022-08-19T02:52:06;16.50;99.90
51783;DHT22;37845;53.196;5.638;2022-08-19T02:54:31;16.50;99.90
51783;DHT22;37845;53.196;5.638;2022-08-19T02:56:57;16.50;99.90
51783;DHT22;37845;53.196;5.638;2022-08-19T02:59:22;16.50;99.90
51783;DHT22;37845;53.196;5.638;2022-08-19T03:01:48;16.50;99.90
51783;DHT22;37845;53.196;5.638;2022-08-19T03:04:15;16.50;99.90
51783;DHT22;37845;53.196;5.638;2022-08-19T03:06:41;16.40;99.90
51783;DHT22;37845;53.196;5.638;2022-08-19T03:09:08;16.40;99.90
51783;DHT22;37845;53.196;5.638;2022-08-19T03:11:34;16.40;99.90
51783;DHT22;37845;53.196;5.638;2022-08-19T03:14:00;16.40;99.90
51783;DHT22;37845;53.196;5.638;2022-08-19T03:16:27;16.40;99.90
51783;DHT22;37845;53.196;5.638;2022-08-19T03:18:56;16.40;99.90
51783;DHT22;37845;53.196;5.638;2022-08-19T03:21:26;16.40;99.90
51783;DHT22;37845;53.196;5.638;2022-08-19T03:23:59;16.30;99.90
51783;DHT22;37845;53.196;5.638;2022-08-19T03:26:25;16.30;99.90
51783;DHT22;37845;53.196;5.638;2022-08-19T03:28:51;16.40;99.90
51783;DHT22;37845;53.196;5.638;2022-08-19T03:31:18;16.30;99.90
51783;DHT22;37845;53.196;5.638;2022-08-19T03:33:44;16.30;99.90
51783;DHT22;37845;53.196;5.638;2022-08-19T03:36:10;16.30;99.90
51783;DHT22;37845;53.196;5.638;2022-08-19T03:38:37;16.30;99.90
51783;DHT22;37845;53.196;5.638;2022-08-19T03:41:08;16.30;99.90
51783;DHT22;37845;53.196;5.638;2022-08-19T03:43:35;16.20;99.90
51783;DHT22;37845;53.196;5.638;2022-08-19T03:46:02;16.30;99.90
51783;DHT22;37845;53.196;5.638;2022-08-19T03:48:30;16.20;99.90
51783;DHT22;37845;53.196;5.638;2022-08-19T03:50:56;16.20;99.90
51783;DHT22;37845;53.196;5.638;2022-08-19T03:53:22;16.20;99.90
51783;DHT22;37845;53.196;5.638;2022-08-19T03:55:48;16.20;99.90
51783;DHT22;37845;53.196;5.638;2022-08-19T03:58:13;16.20;99.90
51783;DHT22;37845;53.196;5.638;2022-08-19T04:00:41;16.20;99.90
51783;DHT22;37845;53.196;5.638;2022-08-19T04:03:07;16.20;99.90
51783;DHT22;37845;53.196;5.638;2022-08-19T04:05:33;16.20;99.90
51783;DHT22;37845;53.196;5.638;2022-08-19T04:07:58;16.20;99.90
51783;DHT22;37845;53.196;5.638;2022-08-19T04:10:24;16.10;99.90
51783;DHT22;37845;53.196;5.638;2022-08-19T04:12:50;16.10;99.90
51783;DHT22;37845;53.196;5.638;2022-08-19T04:15:15;16.10;99.90
51783;DHT22;37845;53.196;5.638;2022-08-19T04:17:41;16.60;99.90
51783;DHT22;37845;53.196;5.638;2022-08-19T04:20:07;16.10;99.90
51783;DHT22;37845;53.196;5.638;2022-08-19T04:22:33;16.10;99.90
51783;DHT22;37845;53.196;5.638;2022-08-19T04:24:58;16.00;99.90
51783;DHT22;37845;53.196;5.638;2022-08-19T04:27:24;16.00;99.90
51783;DHT22;37845;53.196;5.638;2022-08-19T04:29:49;15.90;99.90
51783;DHT22;37845;53.196;5.638;2022-08-19T04:32:15;15.90;99.90
51783;DHT22;37845;53.196;5.638;2022-08-19T04:34:40;15.90;99.90
51783;DHT22;37845;53.196;5.638;2022-08-19T04:37:08;15.90;99.90
51783;DHT22;37845;53.196;5.638;2022-08-19T04:39:37;15.90;99.90
51783;DHT22;37845;53.196;5.638;2022-08-19T04:42:21;15.90;99.90
51783;DHT22;37845;53.196;5.638;2022-08-19T04:45:05;15.90;99.90
51783;DHT22;37845;53.196;5.638;2022-08-19T04:47:31;15.90;99.90
51783;DHT22;37845;53.196;5.638;2022-08-19T04:49:58;15.90;99.90
51783;DHT22;37845;53.196;5.638;2022-08-19T04:52:23;16.00;99.90
51783;DHT22;37845;53.196;5.638;2022-08-19T04:54:49;16.00;99.90
51783;DHT22;37845;53.196;5.638;2022-08-19T04:57:14;16.00;99.90
51783;DHT22;37845;53.196;5.638;2022-08-19T04:59:40;16.00;99.90
51783;DHT22;37845;53.196;5.638;2022-08-19T05:02:06;16.10;99.90
51783;DHT22;37845;53.196;5.638;2022-08-19T05:04:32;16.10;99.90
51783;DHT22;37845;53.196;5.638;2022-08-19T05:06:59;16.10;99.90
51783;DHT22;37845;53.196;5.638;2022-08-19T05:09:25;16.20;99.90
51783;DHT22;37845;53.196;5.638;2022-08-19T05:11:51;16.20;99.90
51783;DHT22;37845;53.196;5.638;2022-08-19T05:14:18;16.20;99.90
51783;DHT22;37845;53.196;5.638;2022-08-19T05:16:45;16.30;99.90
51783;DHT22;37845;53.196;5.638;2022-08-19T05:19:10;16.30;99.90
51783;DHT22;37845;53.196;5.638;2022-08-19T05:21:54;16.30;99.90
51783;DHT22;37845;53.196;5.638;2022-08-19T05:24:39;16.30;99.90
51783;DHT22;37845;53.196;5.638;2022-08-19T05:27:04;16.30;99.90
51783;DHT22;37845;53.196;5.638;2022-08-19T05:29:31;16.40;99.90
51783;DHT22;37845;53.196;5.638;2022-08-19T05:31:57;16.40;99.90
51783;DHT22;37845;53.196;5.638;2022-08-19T05:34:23;16.40;99.90
51783;DHT22;37845;53.196;5.638;2022-08-19T05:36:55;16.50;99.90
51783;DHT22;37845;53.196;5.638;2022-08-19T05:39:23;16.50;99.90
51783;DHT22;37845;53.196;5.638;2022-08-19T05:41:50;16.50;99.90
51783;DHT22;37845;53.196;5.638;2022-08-19T05:44:16;16.60;99.90
51783;DHT22;37845;53.196;5.638;2022-08-19T05:46:45;16.70;99.90
51783;DHT22;37845;53.196;5.638;2022-08-19T05:49:15;16.70;99.90
51783;DHT22;37845;53.196;5.638;2022-08-19T05:51:41;16.70;99.90
51783;DHT22;37845;53.196;5.638;2022-08-19T05:54:07;16.80;99.90
51783;DHT22;37845;53.196;5.638;2022-08-19T05:56:34;16.90;99.90
51783;DHT22;37845;53.196;5.638;2022-08-19T05:59:04;16.90;99.90
51783;DHT22;37845;53.196;5.638;2022-08-19T06:01:36;17.00;99.90
51783;DHT22;37845;53.196;5.638;2022-08-19T06:04:02;17.10;99.90
51783;DHT22;37845;53.196;5.638;2022-08-19T06:06:28;17.10;99.90
51783;DHT22;37845;53.196;5.638;2022-08-19T06:08:54;17.20;99.90
51783;DHT22;37845;53.196;5.638;2022-08-19T06:13:45;17.30;99.90
51783;DHT22;37845;53.196;5.638;2022-08-19T06:16:14;17.40;99.90
51783;DHT22;37845;53.196;5.638;2022-08-19T06:18:46;17.40;99.90
51783;DHT22;37845;53.196;5.638;2022-08-19T06:21:12;17.50;99.90
51783;DHT22;37845;53.196;5.638;2022-08-19T06:23:37;17.60;99.90
51783;DHT22;37845;53.196;5.638;2022-08-19T06:26:03;17.70;99.90
51783;DHT22;37845;53.196;5.638;2022-08-19T06:28:29;17.70;99.90
51783;DHT22;37845;53.196;5.638;2022-08-19T06:30:55;17.80;99.90
51783;DHT22;37845;53.196;5.638;2022-08-19T06:33:20;17.90;99.90
51783;DHT22;37845;53.196;5.638;2022-08-19T06:35:46;17.90;99.90
51783;DHT22;37845;53.196;5.638;2022-08-19T06:38:11;18.00;99.90
51783;DHT22;37845;53.196;5.638;2022-08-19T06:40:38;18.10;99.90
51783;DHT22;37845;53.196;5.638;2022-08-19T06:43:03;18.10;99.90
51783;DHT22;37845;53.196;5.638;2022-08-19T06:45:29;18.20;99.90
51783;DHT22;37845;53.196;5.638;2022-08-19T06:47:55;18.20;99.90
51783;DHT22;37845;53.196;5.638;2022-08-19T06:50:22;18.30;99.90
51783;DHT22;37845;53.196;5.638;2022-08-19T06:52:48;18.40;99.90
51783;DHT22;37845;53.196;5.638;2022-08-19T06:55:14;18.50;99.90
51783;DHT22;37845;53.196;5.638;2022-08-19T06:57:41;18.50;99.90
51783;DHT22;37845;53.196;5.638;2022-08-19T07:00:08;18.60;99.90
51783;DHT22;37845;53.196;5.638;2022-08-19T07:02:38;18.70;99.90
51783;DHT22;37845;53.196;5.638;2022-08-19T07:05:04;18.70;99.90
51783;DHT22;37845;53.196;5.638;2022-08-19T07:07:30;18.80;99.90
51783;DHT22;37845;53.196;5.638;2022-08-19T07:09:56;18.80;99.90
51783;DHT22;37845;53.196;5.638;2022-08-19T07:12:22;19.00;99.90
51783;DHT22;37845;53.196;5.638;2022-08-19T07:14:48;19.00;99.90
51783;DHT22;37845;53.196;5.638;2022-08-19T07:17:14;19.10;99.90
51783;DHT22;37845;53.196;5.638;2022-08-19T07:19:40;19.20;99.90
51783;DHT22;37845;53.196;5.638;2022-08-19T07:22:07;19.20;99.90
51783;DHT22;37845;53.196;5.638;2022-08-19T07:24:32;19.30;99.90
51783;DHT22;37845;53.196;5.638;2022-08-19T07:26:59;19.40;99.90
51783;DHT22;37845;53.196;5.638;2022-08-19T07:29:29;19.50;99.90
51783;DHT22;37845;53.196;5.638;2022-08-19T07:31:56;19.60;99.90
51783;DHT22;37845;53.196;5.638;2022-08-19T07:34:22;19.70;99.90
51783;DHT22;37845;53.196;5.638;2022-08-19T07:36:48;19.70;99.90
51783;DHT22;37845;53.196;5.638;2022-08-19T07:39:16;19.80;99.90
51783;DHT22;37845;53.196;5.638;2022-08-19T07:41:42;19.90;99.90
51783;DHT22;37845;53.196;5.638;2022-08-19T07:44:08;20.00;99.90
51783;DHT22;37845;53.196;5.638;2022-08-19T07:46:35;20.10;99.90
51783;DHT22;37845;53.196;5.638;2022-08-19T07:49:01;20.10;99.90
51783;DHT22;37845;53.196;5.638;2022-08-19T07:51:27;20.20;99.90
51783;DHT22;37845;53.196;5.638;2022-08-19T07:53:53;20.30;99.90
51783;DHT22;37845;53.196;5.638;2022-08-19T07:56:19;20.40;99.90
51783;DHT22;37845;53.196;5.638;2022-08-19T07:58:45;20.40;99.90
51783;DHT22;37845;53.196;5.638;2022-08-19T08:01:13;20.50;99.90
51783;DHT22;37845;53.196;5.638;2022-08-19T08:03:39;20.60;99.90
51783;DHT22;37845;53.196;5.638;2022-08-19T08:06:23;20.70;99.90
51783;DHT22;37845;53.196;5.638;2022-08-19T08:09:08;20.80;99.90
51783;DHT22;37845;53.196;5.638;2022-08-19T08:11:48;20.90;99.90
51783;DHT22;37845;53.196;5.638;2022-08-19T08:14:19;20.90;99.90
51783;DHT22;37845;53.196;5.638;2022-08-19T08:16:45;21.00;99.90
51783;DHT22;37845;53.196;5.638;2022-08-19T08:19:11;21.10;99.90
51783;DHT22;37845;53.196;5.638;2022-08-19T08:21:37;21.00;99.90
51783;DHT22;37845;53.196;5.638;2022-08-19T08:24:02;21.00;99.90
51783;DHT22;37845;53.196;5.638;2022-08-19T08:26:28;21.10;99.90
51783;DHT22;37845;53.196;5.638;2022-08-19T08:28:54;21.10;99.90
51783;DHT22;37845;53.196;5.638;2022-08-19T08:31:19;21.00;99.90
51783;DHT22;37845;53.196;5.638;2022-08-19T08:33:45;21.00;99.90
51783;DHT22;37845;53.196;5.638;2022-08-19T08:36:11;21.00;99.90
51783;DHT22;37845;53.196;5.638;2022-08-19T08:38:39;21.00;99.90
51783;DHT22;37845;53.196;5.638;2022-08-19T08:41:28;21.00;99.90
51783;DHT22;37845;53.196;5.638;2022-08-19T08:43:53;21.20;99.90
51783;DHT22;37845;53.196;5.638;2022-08-19T08:49:06;21.60;99.90
51783;DHT22;37845;53.196;5.638;2022-08-19T08:51:46;21.70;99.90
51783;DHT22;37845;53.196;5.638;2022-08-19T08:54:13;21.70;99.90
51783;DHT22;37845;53.196;5.638;2022-08-19T08:56:40;21.80;99.90
51783;DHT22;37845;53.196;5.638;2022-08-19T08:59:17;21.90;99.90
51783;DHT22;37845;53.196;5.638;2022-08-19T09:01:44;21.90;99.90
51783;DHT22;37845;53.196;5.638;2022-08-19T09:04:10;22.00;99.90
51783;DHT22;37845;53.196;5.638;2022-08-19T09:06:43;22.00;99.90
51783;DHT22;37845;53.196;5.638;2022-08-19T09:12:10;22.00;99.90
51783;DHT22;37845;53.196;5.638;2022-08-19T09:14:48;22.00;99.90
51783;DHT22;37845;53.196;5.638;2022-08-19T09:17:16;22.00;99.90
51783;DHT22;37845;53.196;5.638;2022-08-19T09:19:52;22.00;99.90
51783;DHT22;37845;53.196;5.638;2022-08-19T09:22:18;21.90;99.90
51783;DHT22;37845;53.196;5.638;2022-08-19T09:24:47;22.00;99.90
51783;DHT22;37845;53.196;5.638;2022-08-19T09:27:13;21.90;99.90
51783;DHT22;37845;53.196;5.638;2022-08-19T09:29:39;22.00;99.90
51783;DHT22;37845;53.196;5.638;2022-08-19T09:32:05;22.20;99.90
51783;DHT22;37845;53.196;5.638;2022-08-19T09:34:31;22.20;99.90
51783;DHT22;37845;53.196;5.638;2022-08-19T09:36:57;22.30;99.90
51783;DHT22;37845;53.196;5.638;2022-08-19T09:39:24;22.40;99.90
51783;DHT22;37845;53.196;5.638;2022-08-19T09:41:49;22.60;99.90
51783;DHT22;37845;53.196;5.638;2022-08-19T09:44:15;22.70;99.90
51783;DHT22;37845;53.196;5.638;2022-08-19T09:46:41;22.80;99.90
51783;DHT22;37845;53.196;5.638;2022-08-19T09:49:07;22.90;99.90
51783;DHT22;37845;53.196;5.638;2022-08-19T09:51:32;23.10;99.90
51783;DHT22;37845;53.196;5.638;2022-08-19T09:53:59;23.20;99.90
51783;DHT22;37845;53.196;5.638;2022-08-19T09:56:25;23.30;99.90
51783;DHT22;37845;53.196;5.638;2022-08-19T09:58:50;23.40;99.90
51783;DHT22;37845;53.196;5.638;2022-08-19T10:01:18;23.60;99.90
51783;DHT22;37845;53.196;5.638;2022-08-19T10:03:46;23.60;99.90
51783;DHT22;37845;53.196;5.638;2022-08-19T10:06:12;23.60;99.90
51783;DHT22;37845;53.196;5.638;2022-08-19T10:08:38;23.50;99.90
51783;DHT22;37845;53.196;5.638;2022-08-19T10:11:05;23.40;99.90
51783;DHT22;37845;53.196;5.638;2022-08-19T10:13:31;23.40;99.90
51783;DHT22;37845;53.196;5.638;2022-08-19T10:16:03;23.30;99.90
51783;DHT22;37845;53.196;5.638;2022-08-19T10:18:29;23.30;99.90
51783;DHT22;37845;53.196;5.638;2022-08-19T10:21:03;23.20;99.90
51783;DHT22;37845;53.196;5.638;2022-08-19T10:23:32;23.30;99.90
51783;DHT22;37845;53.196;5.638;2022-08-19T10:26:01;23.50;99.90
51783;DHT22;37845;53.196;5.638;2022-08-19T10:28:26;23.60;99.90
51783;DHT22;37845;53.196;5.638;2022-08-19T10:30:52;23.70;99.90
51783;DHT22;37845;53.196;5.638;2022-08-19T10:33:18;23.70;99.90
51783;DHT22;37845;53.196;5.638;2022-08-19T10:35:44;23.60;99.90
51783;DHT22;37845;53.196;5.638;2022-08-19T10:38:12;23.50;99.90
51783;DHT22;37845;53.196;5.638;2022-08-19T10:40:37;23.60;99.90
51783;DHT22;37845;53.196;5.638;2022-08-19T10:43:03;23.80;99.90
51783;DHT22;37845;53.196;5.638;2022-08-19T10:45:29;23.80;99.90
51783;DHT22;37845;53.196;5.638;2022-08-19T10:47:54;23.80;99.90
51783;DHT22;37845;53.196;5.638;2022-08-19T10:50:20;23.80;99.90
51783;DHT22;37845;53.196;5.638;2022-08-19T10:53:05;23.90;99.90
51783;DHT22;37845;53.196;5.638;2022-08-19T10:55:34;24.00;99.90
51783;DHT22;37845;53.196;5.638;2022-08-19T10:58:19;24.10;99.90
51783;DHT22;37845;53.196;5.638;2022-08-19T11:00:54;24.10;99.90
51783;DHT22;37845;53.196;5.638;2022-08-19T11:03:20;24.20;99.90
51783;DHT22;37845;53.196;5.638;2022-08-19T11:05:46;24.10;99.90
51783;DHT22;37845;53.196;5.638;2022-08-19T11:08:11;24.10;99.90
51783;DHT22;37845;53.196;5.638;2022-08-19T11:10:41;24.00;99.90
51783;DHT22;37845;53.196;5.638;2022-08-19T11:13:06;24.00;99.90
51783;DHT22;37845;53.196;5.638;2022-08-19T11:15:32;24.00;99.90
51783;DHT22;37845;53.196;5.638;2022-08-19T11:17:58;23.90;99.90
51783;DHT22;37845;53.196;5.638;2022-08-19T11:20:24;23.80;99.90
51783;DHT22;37845;53.196;5.638;2022-08-19T11:22:51;23.80;99.90
51783;DHT22;37845;53.196;5.638;2022-08-19T11:25:17;23.80;99.90
51783;DHT22;37845;53.196;5.638;2022-08-19T11:27:43;23.80;99.90
51783;DHT22;37845;53.196;5.638;2022-08-19T11:30:10;23.90;99.90
51783;DHT22;37845;53.196;5.638;2022-08-19T11:32:36;24.00;99.90
51783;DHT22;37845;53.196;5.638;2022-08-19T11:35:02;24.00;99.90
51783;DHT22;37845;53.196;5.638;2022-08-19T11:37:28;24.00;99.90
51783;DHT22;37845;53.196;5.638;2022-08-19T11:39:53;24.00;99.90
51783;DHT22;37845;53.196;5.638;2022-08-19T11:42:19;24.00;99.90
51783;DHT22;37845;53.196;5.638;2022-08-19T11:45:03;23.90;99.90
51783;DHT22;37845;53.196;5.638;2022-08-19T11:47:29;23.90;99.90
51783;DHT22;37845;53.196;5.638;2022-08-19T11:49:55;23.90;99.90
51783;DHT22;37845;53.196;5.638;2022-08-19T11:52:21;23.90;99.90
51783;DHT22;37845;53.196;5.638;2022-08-19T11:54:47;23.90;99.90
51783;DHT22;37845;53.196;5.638;2022-08-19T11:57:12;23.90;99.90
51783;DHT22;37845;53.196;5.638;2022-08-19T11:59:40;23.80;99.90
51783;DHT22;37845;53.196;5.638;2022-08-19T12:02:05;23.90;99.90
51783;DHT22;37845;53.196;5.638;2022-08-19T12:04:31;24.00;99.90
51783;DHT22;37845;53.196;5.638;2022-08-19T12:06:56;23.90;99.90
51783;DHT22;37845;53.196;5.638;2022-08-19T12:09:27;24.00;99.90
51783;DHT22;37845;53.196;5.638;2022-08-19T12:11:53;24.10;99.90
51783;DHT22;37845;53.196;5.638;2022-08-19T12:14:18;24.20;99.90
51783;DHT22;37845;53.196;5.638;2022-08-19T12:16:45;24.20;99.90
51783;DHT22;37845;53.196;5.638;2022-08-19T12:19:11;24.30;99.90
51783;DHT22;37845;53.196;5.638;2022-08-19T12:21:37;24.40;99.90
51783;DHT22;37845;53.196;5.638;2022-08-19T12:24:03;24.30;99.90
51783;DHT22;37845;53.196;5.638;2022-08-19T12:26:30;24.40;99.90
51783;DHT22;37845;53.196;5.638;2022-08-19T12:28:57;24.30;99.90
51783;DHT22;37845;53.196;5.638;2022-08-19T12:31:25;24.30;99.90
51783;DHT22;37845;53.196;5.638;2022-08-19T12:33:50;24.30;99.90
51783;DHT22;37845;53.196;5.638;2022-08-19T12:36:17;24.40;99.90
51783;DHT22;37845;53.196;5.638;2022-08-19T12:38:43;24.40;99.90
51783;DHT22;37845;53.196;5.638;2022-08-19T12:41:10;24.50;99.90
51783;DHT22;37845;53.196;5.638;2022-08-19T12:43:37;24.50;99.90
51783;DHT22;37845;53.196;5.638;2022-08-19T12:46:03;24.70;99.90
51783;DHT22;37845;53.196;5.638;2022-08-19T12:48:29;24.80;99.90
51783;DHT22;37845;53.196;5.638;2022-08-19T12:50:55;24.80;99.90
51783;DHT22;37845;53.196;5.638;2022-08-19T12:53:21;25.00;99.90
51783;DHT22;37845;53.196;5.638;2022-08-19T12:55:47;25.00;99.90
51783;DHT22;37845;53.196;5.638;2022-08-19T12:58:13;25.00;99.90
51783;DHT22;37845;53.196;5.638;2022-08-19T13:00:39;24.70;99.90
51783;DHT22;37845;53.196;5.638;2022-08-19T13:03:04;24.70;99.90
51783;DHT22;37845;53.196;5.638;2022-08-19T13:05:31;24.70;99.90
51783;DHT22;37845;53.196;5.638;2022-08-19T13:07:58;24.70;99.90
51783;DHT22;37845;53.196;5.638;2022-08-19T13:10:29;24.80;99.90
51783;DHT22;37845;53.196;5.638;2022-08-19T13:12:55;24.90;99.90
51783;DHT22;37845;53.196;5.638;2022-08-19T13:15:21;24.90;99.90
51783;DHT22;37845;53.196;5.638;2022-08-19T13:17:48;24.80;99.90
51783;DHT22;37845;53.196;5.638;2022-08-19T13:20:14;24.70;99.90
51783;DHT22;37845;53.196;5.638;2022-08-19T13:22:40;24.60;99.90
51783;DHT22;37845;53.196;5.638;2022-08-19T13:25:06;24.70;99.90
51783;DHT22;37845;53.196;5.638;2022-08-19T13:27:32;24.70;99.90
51783;DHT22;37845;53.196;5.638;2022-08-19T13:29:57;24.90;99.90
51783;DHT22;37845;53.196;5.638;2022-08-19T13:32:42;24.90;99.90
51783;DHT22;37845;53.196;5.638;2022-08-19T13:35:26;25.00;99.90
51783;DHT22;37845;53.196;5.638;2022-08-19T13:37:52;25.20;99.90
51783;DHT22;37845;53.196;5.638;2022-08-19T13:40:19;25.20;99.90
51783;DHT22;37845;53.196;5.638;2022-08-19T13:42:48;25.10;99.90
51783;DHT22;37845;53.196;5.638;2022-08-19T13:45:18;25.00;99.90
51783;DHT22;37845;53.196;5.638;2022-08-19T13:47:45;24.90;99.90
51783;DHT22;37845;53.196;5.638;2022-08-19T13:50:12;24.80;99.90
51783;DHT22;37845;53.196;5.638;2022-08-19T13:52:38;24.80;99.90
51783;DHT22;37845;53.196;5.638;2022-08-19T13:55:04;24.80;99.90
51783;DHT22;37845;53.196;5.638;2022-08-19T13:57:30;25.00;99.90
51783;DHT22;37845;53.196;5.638;2022-08-19T13:59:57;25.00;99.90
51783;DHT22;37845;53.196;5.638;2022-08-19T14:02:23;25.00;99.90
51783;DHT22;37845;53.196;5.638;2022-08-19T14:04:48;25.00;99.90
51783;DHT22;37845;53.196;5.638;2022-08-19T14:07:14;25.00;99.90
51783;DHT22;37845;53.196;5.638;2022-08-19T14:09:40;25.00;99.90
51783;DHT22;37845;53.196;5.638;2022-08-19T14:12:06;25.20;99.90
51783;DHT22;37845;53.196;5.638;2022-08-19T14:14:31;25.20;99.90
51783;DHT22;37845;53.196;5.638;2022-08-19T14:16:57;25.30;99.90
51783;DHT22;37845;53.196;5.638;2022-08-19T14:19:23;25.10;99.90
51783;DHT22;37845;53.196;5.638;2022-08-19T14:21:49;25.30;99.90
51783;DHT22;37845;53.196;5.638;2022-08-19T14:24:15;25.40;99.90
51783;DHT22;37845;53.196;5.638;2022-08-19T14:26:40;25.30;99.90
51783;DHT22;37845;53.196;5.638;2022-08-19T14:29:06;25.10;99.90
51783;DHT22;37845;53.196;5.638;2022-08-19T14:31:31;25.10;99.90
51783;DHT22;37845;53.196;5.638;2022-08-19T14:33:57;24.90;99.90
51783;DHT22;37845;53.196;5.638;2022-08-19T14:36:23;24.80;99.90
51783;DHT22;37845;53.196;5.638;2022-08-19T14:38:49;24.80;99.90
51783;DHT22;37845;53.196;5.638;2022-08-19T14:41:22;24.70;99.90
51783;DHT22;37845;53.196;5.638;2022-08-19T14:43:48;24.60;99.90
51783;DHT22;37845;53.196;5.638;2022-08-19T14:46:15;24.50;99.90
51783;DHT22;37845;53.196;5.638;2022-08-19T14:48:42;24.40;99.90
51783;DHT22;37845;53.196;5.638;2022-08-19T14:51:08;24.40;99.90
51783;DHT22;37845;53.196;5.638;2022-08-19T14:53:34;24.30;99.90
51783;DHT22;37845;53.196;5.638;2022-08-19T14:56:00;24.50;99.90
51783;DHT22;37845;53.196;5.638;2022-08-19T14:58:26;24.50;99.90
51783;DHT22;37845;53.196;5.638;2022-08-19T15:00:52;24.60;99.90
51783;DHT22;37845;53.196;5.638;2022-08-19T15:03:17;24.60;99.90
51783;DHT22;37845;53.196;5.638;2022-08-19T15:05:43;24.60;99.90
51783;DHT22;37845;53.196;5.638;2022-08-19T15:08:09;24.50;99.90
51783;DHT22;37845;53.196;5.638;2022-08-19T15:10:35;24.50;99.90
51783;DHT22;37845;53.196;5.638;2022-08-19T15:13:01;24.50;99.90
51783;DHT22;37845;53.196;5.638;2022-08-19T15:15:26;24.50;99.90
51783;DHT22;37845;53.196;5.638;2022-08-19T15:17:52;24.50;99.90
51783;DHT22;37845;53.196;5.638;2022-08-19T15:20:19;24.50;99.90
51783;DHT22;37845;53.196;5.638;2022-08-19T15:22:46;24.50;99.90
51783;DHT22;37845;53.196;5.638;2022-08-19T15:25:13;24.60;99.90
51783;DHT22;37845;53.196;5.638;2022-08-19T15:27:39;24.70;99.90
51783;DHT22;37845;53.196;5.638;2022-08-19T15:30:05;24.80;99.90
51783;DHT22;37845;53.196;5.638;2022-08-19T15:32:31;24.90;99.90
51783;DHT22;37845;53.196;5.638;2022-08-19T15:34:57;24.90;99.90
51783;DHT22;37845;53.196;5.638;2022-08-19T15:37:22;25.00;99.90
51783;DHT22;37845;53.196;5.638;2022-08-19T15:39:49;25.00;99.90
51783;DHT22;37845;53.196;5.638;2022-08-19T15:42:15;25.00;99.90